Airfield :
LOGIN :

Register | Disclaimer

   EN    FR    IT 

 










Legend :    VFR   Marginal VFR   IFR   Intensive IFR   Very Intensive IFR
Visi :
Ceiling :
>= 8 km
>= 3000ft
5 to 8 km
1000 to 3000 ft
1500m to 5 km
500 to 1000 ft
800 to 1500m
200 to 500 ft
< 800m
< 200 ft
Symbols :   Thunderstorms  Fog  Heavy snow  Heavy precipitations  Wind > 20 kt
SIGMETs :     Misc.  Thunderstorms  Icing  Turbulence  Mountain Waves  Volcanic Ashes






- Airport Elevation : 465 ft
- IATA code : LEJ


EDDP - Leipzig Halle

CURRENT METAR :
  • 060620Z 20012KT CAVOK M00/M04 Q1013 NOSIG

EXPIRED METARs :
  • 060550Z 21011KT CAVOK M00/M04 Q1014 NOSIG
  • 060520Z 20010KT CAVOK M00/M04 Q1014 NOSIG
  • 060450Z 20009KT 180V250 CAVOK M01/M04 Q1014 NOSIG
  • 060420Z 21011KT CAVOK M01/M04 Q1014 NOSIG
  • 060350Z 20016KT CAVOK 00/M04 Q1014 NOSIG

TAF TAF EDDP
Valid from the 06 at 06:00 until the 07 at 06:00 UTC


060500Z 0606/0706 22015KT 9999 SCT030 BKN040
BECMG 0609/0611 22015G25KT
TEMPO 0609/0614 22020G30KT
TEMPO 0620/0706 21020G30KT



MET'MAP, your aeronautical weather chart ! - Copyright ORBIFLY December 2007 - Disclaimer

ORBIFLY MET'MAP TEAM :

Programming & Development : Alexandra Zaïnal
Concept & original design : Baudouin d'Aumeries
Assistance for programming : Marc-Olivier Méhu
Technical & hardware support : Manuel Goepfert

Contact : metmap@orbifly.com




SOURCES & CREDITS :

   NOAA